Strona główna
METAR-TAF:

METAR-TAF

Lotnisko :

Port lotniczy Dortmund

Dortmund, Niemcy

Szerokość geograficzna: 51-31N, Długość geograficzna: 007-37E, wysokość: 127 m

Aktualna obserwacja pogody

Raport powstał 23 minut temu, godzina 01:20 UTC
Wiatr 3 kt od zachodnio-południowy zachód, zmienny między południowy zachód i zachodnio-północny zachód
Temperatura 17°C
Wilgotność 82%
Ciśnienie 1013 hPa
Widzialność 10 km lub więcej

METAR: EDLW 190120Z AUTO 25003KT 220V300 9999 // BKN052/// BKN078/// 17/14 Q1013

czas: 03:43 (01:43 UTC)

Prognoza

Raport powstał 8 godziny i 43 minut temu, godzina 17:00 UTC
Prognoza ważna od 18 godzina 18 UTC do 19 godzina 18 UTC
Wiatr 9 kt od południowy zachód
Widzialność 10 km lub więcej
Brak chmur poniżej 1500 m i brak chmur cumulonimbus
Stopniowe zmiany
od 18 godzina 18 UTC do 18 godzina 20 UTC
Wiatr 4 kt od południowo-południowy zachód
Stopniowe zmiany
od 19 godzina 08 UTC do 19 godzina 10 UTC
Wiatr 7 kt od zachód

TAF: EDLW 181700Z 1818/1918 23009KT CAVOK BECMG 1818/1820 20004KT BECMG 1908/1910 26007KT

Obserwacja i prognoza pogody dla ponad 4000 lotnisk (raport METAR i TAF).

Dostępne stacje oznaczono żółtymi i czerwonymi punktami na mapie.

Najedź kursorem aby zobaczyć nazwę stacji.

Kliknij aby zobaczyć obserwacje i prognozy pogody.

Aby zmienić mapę: kliknij na zielony przycisk z czarnym krzyżykiem, aby powiększyć; na zielony przycisk z myślnikiem, aby pomniejszyć; na zielone strzałki, aby przejść do map sąsiednich.


METAR-TAF: